Time;durP1;ratioP1;P1;durP2;ratioP2;P2;SDS_P1;SDS_P2;PMS_P1;PMS_P2;Temp;Humidity;BMP_temperature;BMP_pressure;BME280_temperature;BME280_humidity;BME280_pressure;Samples;Min_cycle;Max_cycle;Signal;HPM_P1;HPM_P2
2023/04/06 00:00:34;;;;;;;6.93;4.10;;;6.10;78.50;;;;;;5078464;28;20178;-65
2023/04/06 00:02:59;;;;;;;5.70;3.93;;;6.00;79.70;;;;;;5076849;28;20403;-65
2023/04/06 00:05:30;;;;;;;7.10;4.40;;;6.00;79.20;;;;;;5081390;28;20180;-65
2023/04/06 00:07:57;;;;;;;6.00;3.90;;;6.00;79.70;;;;;;5078061;28;20212;-64
2023/04/06 00:10:25;;;;;;;6.23;4.00;;;5.90;79.60;;;;;;5079056;28;20287;-67
2023/04/06 00:12:53;;;;;;;7.60;4.00;;;5.90;80.00;;;;;;5078960;28;20183;-65
2023/04/06 00:15:21;;;;;;;5.20;3.90;;;5.90;80.80;;;;;;5076500;28;20237;-65
2023/04/06 00:17:49;;;;;;;6.23;3.93;;;5.80;81.10;;;;;;5078626;28;20208;-65
2023/04/06 00:20:19;;;;;;;5.17;3.70;;;5.80;81.50;;;;;;5086966;28;20192;-67
2023/04/06 00:22:45;;;;;;;6.07;4.10;;;5.80;81.50;;;;;;5060276;28;20196;-64
2023/04/06 00:25:11;;;;;;;6.63;4.07;;;5.80;81.70;;;;;;5080181;28;20191;-65
2023/04/06 00:27:40;;;;;;;4.63;3.57;;;5.80;82.10;;;;;;5087274;28;20214;-65
2023/04/06 00:30:07;;;;;;;5.57;3.83;;;5.70;82.30;;;;;;5073038;28;20196;-66
2023/04/06 00:32:35;;;;;;;6.27;4.00;;;5.70;82.60;;;;;;5097693;28;20255;-65
2023/04/06 00:35:05;;;;;;;4.07;3.13;;;5.70;83.30;;;;;;5080165;28;20176;-65
2023/04/06 00:37:34;;;;;;;7.17;3.83;;;5.70;83.60;;;;;;5088209;28;20187;-64
2023/04/06 00:40:02;;;;;;;5.20;3.73;;;5.70;83.30;;;;;;5069535;28;20498;-64
2023/04/06 00:42:28;;;;;;;5.43;3.97;;;5.60;83.50;;;;;;5076280;28;20200;-65
2023/04/06 00:44:55;;;;;;;5.00;3.50;;;5.60;83.80;;;;;;5073541;28;20178;-65
2023/04/06 00:47:22;;;;;;;4.47;3.87;;;5.60;84.30;;;;;;5103392;28;20234;-65
2023/04/06 00:49:48;;;;;;;4.87;4.10;;;5.60;84.60;;;;;;5077755;28;20252;-67
2023/04/06 00:52:17;;;;;;;6.00;4.10;;;5.50;84.70;;;;;;5077477;28;20218;-66
2023/04/06 00:54:46;;;;;;;6.17;4.27;;;5.60;85.40;;;;;;5074512;28;20177;-66
2023/04/06 00:57:12;;;;;;;5.33;4.10;;;5.50;85.60;;;;;;5077299;28;20199;-65
2023/04/06 00:59:38;;;;;;;5.30;3.77;;;5.50;86.30;;;;;;5081164;28;20179;-66
2023/04/06 01:02:04;;;;;;;6.23;4.30;;;5.50;86.30;;;;;;5070657;28;20180;-66
2023/04/06 01:04:33;;;;;;;5.83;4.30;;;5.40;86.50;;;;;;5070829;28;20211;-65
2023/04/06 01:07:01;;;;;;;6.47;4.57;;;5.40;86.70;;;;;;5058283;28;20220;-66
2023/04/06 01:09:30;;;;;;;7.53;4.50;;;5.30;87.20;;;;;;5071688;28;20499;-66
2023/04/06 01:11:59;;;;;;;7.07;4.40;;;5.30;87.70;;;;;;5107431;27;20195;-65
2023/04/06 01:14:27;;;;;;;7.20;4.47;;;5.30;88.20;;;;;;5070129;28;20172;-65
2023/04/06 01:16:57;;;;;;;5.83;4.20;;;5.30;89.00;;;;;;5074816;28;20179;-65
2023/04/06 01:19:25;;;;;;;5.30;3.90;;;5.20;88.60;;;;;;5059222;28;20212;-65
2023/04/06 01:21:53;;;;;;;5.73;3.80;;;5.20;89.20;;;;;;5087404;28;20180;-65
2023/04/06 01:24:19;;;;;;;6.57;4.20;;;5.10;89.80;;;;;;5065893;28;20196;-65
2023/04/06 01:26:45;;;;;;;5.37;3.73;;;5.10;89.80;;;;;;5075500;28;20184;-65
2023/04/06 01:29:11;;;;;;;6.77;3.90;;;5.00;90.10;;;;;;5073841;28;20235;-65
2023/04/06 01:31:37;;;;;;;7.03;4.30;;;5.00;90.10;;;;;;5078095;28;20175;-66
2023/04/06 01:34:03;;;;;;;6.80;4.50;;;5.00;90.30;;;;;;5081311;28;20204;-66
2023/04/06 01:36:28;;;;;;;7.33;4.50;;;5.00;90.50;;;;;;5077828;28;20202;-66
2023/04/06 01:38:54;;;;;;;8.17;4.43;;;5.00;90.70;;;;;;5076168;28;20167;-65
2023/04/06 01:41:22;;;;;;;7.10;4.63;;;4.90;90.80;;;;;;5096020;28;20171;-66
2023/04/06 01:43:49;;;;;;;7.20;4.63;;;4.90;91.20;;;;;;5069293;28;20291;-66
2023/04/06 01:46:15;;;;;;;6.80;4.50;;;4.80;91.10;;;;;;5069156;28;20200;-66
2023/04/06 01:48:44;;;;;;;7.97;5.40;;;4.80;91.10;;;;;;5077975;28;20206;-65
2023/04/06 01:51:09;;;;;;;8.87;5.07;;;4.80;91.40;;;;;;5098112;28;20270;-65
2023/04/06 01:53:35;;;;;;;10.60;6.23;;;4.70;91.30;;;;;;5107250;28;20226;-65
2023/04/06 01:56:01;;;;;;;10.53;6.63;;;4.70;91.50;;;;;;5089933;28;20186;-65
2023/04/06 01:58:26;;;;;;;9.43;6.10;;;4.60;91.60;;;;;;5077274;28;20222;-65
2023/04/06 02:00:55;;;;;;;10.27;5.67;;;4.60;91.80;;;;;;5097496;28;20176;-65
2023/04/06 02:03:21;;;;;;;12.40;6.30;;;4.60;92.20;;;;;;5078155;28;20168;-66
2023/04/06 02:05:48;;;;;;;9.07;5.37;;;4.60;92.00;;;;;;5081192;28;20289;-65
2023/04/06 02:08:14;;;;;;;8.30;5.07;;;4.50;92.10;;;;;;5077654;28;20198;-65
2023/04/06 02:10:40;;;;;;;7.20;4.73;;;4.50;92.20;;;;;;5076372;28;20259;-66
2023/04/06 02:13:07;;;;;;;7.67;5.00;;;4.50;92.40;;;;;;5081198;28;20171;-65
2023/04/06 02:15:35;;;;;;;8.17;4.77;;;4.60;92.60;;;;;;5101167;28;20176;-66
2023/04/06 02:18:01;;;;;;;6.77;4.33;;;4.60;92.70;;;;;;5081741;28;20182;-66
2023/04/06 02:20:29;;;;;;;6.73;4.43;;;4.60;92.80;;;;;;5074611;28;20180;-65
2023/04/06 02:22:58;;;;;;;6.37;4.17;;;4.60;92.90;;;;;;5082360;28;20262;-65
2023/04/06 02:25:26;;;;;;;5.00;3.77;;;4.60;93.10;;;;;;5070454;28;20227;-66
2023/04/06 02:27:54;;;;;;;4.90;3.23;;;4.60;92.90;;;;;;5082770;28;20196;-66
2023/04/06 02:30:20;;;;;;;6.33;4.10;;;4.60;92.90;;;;;;5072776;28;20192;-66
2023/04/06 02:32:45;;;;;;;5.87;3.97;;;4.60;93.10;;;;;;5080660;28;20226;-65
2023/04/06 02:35:16;;;;;;;6.77;4.20;;;4.60;93.20;;;;;;5074034;28;20182;-65
2023/04/06 02:37:44;;;;;;;6.10;4.30;;;4.50;93.20;;;;;;5080951;28;20199;-66
2023/04/06 02:40:13;;;;;;;6.60;4.00;;;4.50;93.30;;;;;;5072419;28;20176;-66
2023/04/06 02:42:39;;;;;;;6.23;4.53;;;4.50;93.50;;;;;;5075852;28;20294;-68
2023/04/06 02:45:07;;;;;;;6.00;3.90;;;4.40;93.60;;;;;;5097085;28;20226;-69
2023/04/06 02:47:35;;;;;;;10.93;4.97;;;4.40;93.80;;;;;;5070159;28;20196;-68
2023/04/06 02:50:01;;;;;;;5.87;4.13;;;4.30;93.70;;;;;;5106237;27;20168;-67
2023/04/06 02:52:29;;;;;;;5.80;3.80;;;4.30;93.80;;;;;;5067071;28;20207;-68
2023/04/06 02:54:57;;;;;;;6.80;3.87;;;4.20;93.90;;;;;;5086585;28;20199;-69
2023/04/06 02:57:23;;;;;;;4.93;3.73;;;4.10;94.00;;;;;;5080102;28;20188;-69
2023/04/06 02:59:49;;;;;;;5.10;3.47;;;4.10;94.10;;;;;;5065819;28;20204;-69
2023/04/06 03:02:16;;;;;;;5.40;3.70;;;4.10;94.40;;;;;;5078836;28;20186;-69
2023/04/06 03:04:42;;;;;;;5.50;3.80;;;4.10;94.60;;;;;;5112277;28;20172;-69
2023/04/06 03:07:10;;;;;;;6.70;4.50;;;4.10;94.90;;;;;;5066197;28;20207;-69
2023/04/06 03:09:37;;;;;;;13.23;8.97;;;4.00;94.90;;;;;;5079932;28;20213;-69
2023/04/06 03:12:03;;;;;;;9.30;6.80;;;4.00;95.30;;;;;;5073705;28;20220;-69
2023/04/06 03:14:28;;;;;;;8.10;5.67;;;4.00;95.20;;;;;;5071258;28;20262;-68
2023/04/06 03:16:56;;;;;;;9.40;5.17;;;3.90;95.10;;;;;;5067599;28;20172;-68
2023/04/06 03:19:22;;;;;;;7.73;5.03;;;3.90;95.20;;;;;;5080058;28;20176;-69
2023/04/06 03:21:52;;;;;;;6.93;4.93;;;3.90;95.30;;;;;;5078592;28;20179;-67
2023/04/06 03:24:20;;;;;;;7.47;4.30;;;3.90;95.70;;;;;;5080393;28;20209;-68
2023/04/06 03:26:46;;;;;;;6.50;4.37;;;3.90;95.60;;;;;;5081313;28;20272;-69
2023/04/06 03:29:12;;;;;;;5.40;4.10;;;3.80;95.70;;;;;;5081707;28;20195;-69
2023/04/06 03:31:40;;;;;;;5.67;3.83;;;3.80;95.90;;;;;;5080381;28;20207;-66
2023/04/06 03:34:06;;;;;;;6.00;4.50;;;3.80;96.10;;;;;;5084461;28;20167;-68
2023/04/06 03:36:31;;;;;;;12.47;7.37;;;3.80;96.10;;;;;;5100074;28;20185;-68
2023/04/06 03:38:57;;;;;;;7.33;4.83;;;3.80;96.20;;;;;;5097330;28;20210;-69
2023/04/06 03:41:23;;;;;;;7.17;4.97;;;3.70;96.30;;;;;;5080029;28;20176;-68
2023/04/06 03:43:50;;;;;;;7.97;5.43;;;3.70;96.60;;;;;;5079990;28;20176;-68
2023/04/06 03:46:21;;;;;;;7.53;5.27;;;3.70;97.00;;;;;;5075509;28;20208;-69
2023/04/06 03:48:48;;;;;;;7.10;4.97;;;3.70;97.30;;;;;;5110991;28;20199;-69
2023/04/06 03:51:14;;;;;;;5.77;4.33;;;3.70;97.30;;;;;;5075224;28;20168;-69
2023/04/06 03:53:40;;;;;;;5.67;4.00;;;3.70;97.30;;;;;;5079502;28;20192;-67
2023/04/06 03:56:06;;;;;;;5.37;4.20;;;3.70;97.20;;;;;;5069197;28;20172;-69
2023/04/06 03:58:34;;;;;;;5.77;4.17;;;3.60;97.20;;;;;;5074809;28;20184;-69
2023/04/06 04:01:00;;;;;;;11.97;8.33;;;3.60;97.40;;;;;;5077828;28;20172;-69
2023/04/06 04:03:27;;;;;;;14.20;8.03;;;3.60;97.60;;;;;;5078901;28;20191;-67
2023/04/06 04:05:56;;;;;;;9.57;6.07;;;3.60;97.90;;;;;;5079708;28;20199;-68
2023/04/06 04:08:23;;;;;;;6.53;4.70;;;3.60;97.80;;;;;;5070447;28;20184;-68
2023/04/06 04:10:48;;;;;;;7.53;4.83;;;3.60;98.00;;;;;;5073035;28;20273;-69
2023/04/06 04:13:17;;;;;;;6.70;4.23;;;3.60;98.20;;;;;;5075412;28;20180;-68
2023/04/06 04:15:42;;;;;;;5.87;4.20;;;3.70;98.40;;;;;;5074823;28;20238;-68
2023/04/06 04:18:08;;;;;;;6.33;4.10;;;3.60;98.50;;;;;;5070095;28;20219;-65
2023/04/06 04:20:36;;;;;;;5.50;4.20;;;3.50;98.80;;;;;;5081369;28;20242;-68
2023/04/06 04:23:04;;;;;;;7.60;4.50;;;3.50;99.10;;;;;;5079045;28;20275;-69
2023/04/06 04:25:29;;;;;;;7.40;3.87;;;3.50;99.20;;;;;;5088483;28;20207;-68
2023/04/06 04:27:55;;;;;;;7.17;4.10;;;3.60;99.40;;;;;;5084701;28;20294;-68
2023/04/06 04:30:21;;;;;;;7.43;4.77;;;3.50;99.40;;;;;;5067957;28;20180;-65
2023/04/06 04:32:49;;;;;;;9.73;4.23;;;3.50;99.60;;;;;;5078697;28;20286;-67
2023/04/06 04:35:17;;;;;;;7.63;4.47;;;3.50;99.50;;;;;;5085303;28;20179;-66
2023/04/06 04:37:43;;;;;;;7.13;4.10;;;3.50;99.90;;;;;;5068877;28;20204;-66
2023/04/06 04:40:09;;;;;;;8.00;4.97;;;3.50;99.70;;;;;;5081826;28;20202;-64
2023/04/06 04:42:35;;;;;;;10.33;4.73;;;3.40;99.90;;;;;;5086067;28;20176;-69
2023/04/06 04:45:03;;;;;;;9.23;5.20;;;3.40;99.90;;;;;;5073499;28;20186;-69
2023/04/06 04:47:29;;;;;;;12.63;6.73;;;3.40;99.90;;;;;;5070386;28;20202;-63
2023/04/06 04:49:54;;;;;;;9.53;5.87;;;3.50;99.90;;;;;;5077925;28;20175;-65
2023/04/06 04:52:22;;;;;;;9.50;5.70;;;3.40;99.90;;;;;;5077785;28;20183;-62
2023/04/06 04:54:48;;;;;;;7.90;5.13;;;3.40;99.90;;;;;;5075821;28;20234;-67
2023/04/06 04:57:14;;;;;;;9.53;5.17;;;3.40;99.90;;;;;;5077038;28;20200;-67
2023/04/06 04:59:39;;;;;;;9.23;5.03;;;3.40;99.90;;;;;;5064923;28;20180;-65
2023/04/06 05:02:05;;;;;;;6.87;4.17;;;3.40;99.90;;;;;;5088353;28;20184;-71
2023/04/06 05:04:31;;;;;;;7.10;4.40;;;3.40;99.90;;;;;;5093741;28;20214;-68
2023/04/06 05:07:08;;;;;;;6.70;4.63;;;3.40;99.90;;;;;;5081358;28;20175;-69
2023/04/06 05:09:34;;;;;;;8.60;4.60;;;3.40;99.90;;;;;;5078182;28;20156;-67
2023/04/06 05:12:00;;;;;;;6.27;4.10;;;3.40;99.90;;;;;;5074673;28;20176;-66
2023/04/06 05:14:27;;;;;;;7.13;4.53;;;3.40;99.90;;;;;;5079292;28;20278;-67
2023/04/06 05:16:55;;;;;;;6.63;4.47;;;3.40;99.90;;;;;;5075232;28;20191;-68
2023/04/06 05:19:23;;;;;;;5.80;3.83;;;3.40;99.90;;;;;;5077190;28;20172;-69
2023/04/06 05:21:48;;;;;;;7.20;3.90;;;3.40;99.90;;;;;;5085880;28;20288;-67
2023/04/06 05:24:14;;;;;;;6.03;3.60;;;3.50;99.90;;;;;;5087245;28;20374;-69
2023/04/06 05:26:42;;;;;;;4.70;3.60;;;3.50;99.90;;;;;;5080566;28;20180;-68
2023/04/06 05:29:07;;;;;;;4.80;3.40;;;3.60;99.90;;;;;;5076677;28;20195;-67
2023/04/06 05:31:33;;;;;;;5.03;3.33;;;3.60;99.90;;;;;;5077203;28;20180;-69
2023/04/06 05:33:59;;;;;;;4.87;3.03;;;3.70;99.90;;;;;;5074782;28;20195;-70
2023/04/06 05:36:25;;;;;;;4.00;3.17;;;3.90;99.90;;;;;;5096968;28;20189;-69
2023/04/06 05:38:53;;;;;;;3.83;3.07;;;3.90;99.90;;;;;;5066418;28;20257;-69
2023/04/06 05:41:20;;;;;;;4.03;2.90;;;4.00;99.90;;;;;;5089166;28;20187;-68
2023/04/06 05:43:45;;;;;;;3.90;2.97;;;4.10;99.90;;;;;;5089756;28;20438;-68
2023/04/06 05:46:11;;;;;;;4.90;3.37;;;4.20;99.90;;;;;;5077393;28;20170;-68
2023/04/06 05:48:36;;;;;;;4.37;3.30;;;4.40;99.90;;;;;;5063018;28;20196;-70
2023/04/06 05:51:06;;;;;;;5.27;3.40;;;4.50;99.90;;;;;;5062008;28;20174;-70
2023/04/06 05:53:32;;;;;;;3.53;2.93;;;4.60;99.90;;;;;;5090230;28;20200;-69
2023/04/06 05:56:01;;;;;;;5.30;3.23;;;4.60;99.90;;;;;;5077007;28;20181;-69
2023/04/06 05:58:29;;;;;;;3.83;2.97;;;4.80;99.90;;;;;;5062499;28;20246;-69
2023/04/06 06:01:02;;;;;;;3.57;3.00;;;4.80;99.90;;;;;;5103949;28;20171;-69
2023/04/06 06:03:29;;;;;;;3.90;3.13;;;4.90;99.90;;;;;;5084985;28;20374;-69
2023/04/06 06:06:00;;;;;;;6.07;3.33;;;5.00;99.90;;;;;;5079087;28;20168;-69
2023/04/06 06:08:28;;;;;;;4.30;3.20;;;5.10;99.90;;;;;;5077307;28;20397;-69
2023/04/06 06:10:56;;;;;;;4.57;3.33;;;5.10;99.90;;;;;;5077090;28;20176;-67
2023/04/06 06:13:25;;;;;;;4.30;3.00;;;5.20;99.90;;;;;;5076793;28;20195;-69
2023/04/06 06:15:53;;;;;;;5.00;3.10;;;5.30;99.90;;;;;;5091109;28;20180;-69
2023/04/06 06:18:19;;;;;;;4.53;3.20;;;5.40;99.90;;;;;;5076552;28;20203;-69
2023/04/06 06:20:44;;;;;;;4.30;3.10;;;5.40;99.90;;;;;;5074793;28;20187;-70
2023/04/06 06:23:10;;;;;;;4.03;2.97;;;5.50;99.90;;;;;;5076443;28;20172;-69
2023/04/06 06:25:38;;;;;;;5.37;3.10;;;5.50;99.90;;;;;;5076467;28;20187;-67
2023/04/06 06:28:04;;;;;;;3.93;3.00;;;5.60;99.90;;;;;;5085790;28;20499;-66
2023/04/06 06:30:32;;;;;;;3.53;2.90;;;5.70;99.90;;;;;;5077384;28;20258;-68
2023/04/06 06:33:00;;;;;;;4.33;3.47;;;5.70;99.90;;;;;;5073229;28;20254;-64
2023/04/06 06:35:25;;;;;;;4.27;3.33;;;5.80;99.90;;;;;;5104335;28;20179;-68
2023/04/06 06:37:53;;;;;;;5.07;3.83;;;5.80;99.90;;;;;;5076693;28;20176;-69
2023/04/06 06:40:21;;;;;;;4.93;3.60;;;5.90;99.90;;;;;;5077655;28;20248;-68
2023/04/06 06:42:47;;;;;;;5.40;3.83;;;5.90;99.90;;;;;;5076909;28;20184;-69
2023/04/06 06:45:13;;;;;;;5.50;3.80;;;6.00;99.90;;;;;;5076609;28;20190;-61
2023/04/06 06:47:38;;;;;;;6.10;4.03;;;6.00;99.90;;;;;;5093913;28;20184;-68
2023/04/06 06:50:11;;;;;;;4.87;3.73;;;6.10;99.90;;;;;;5076834;28;20188;-69
2023/04/06 06:52:37;;;;;;;4.33;3.43;;;6.20;99.90;;;;;;5078253;28;20223;-69
2023/04/06 06:55:03;;;;;;;5.73;4.00;;;6.20;99.90;;;;;;5097863;28;20178;-69
2023/04/06 06:57:28;;;;;;;4.53;3.70;;;6.30;99.90;;;;;;5091787;28;20175;-68
2023/04/06 06:59:54;;;;;;;4.70;3.30;;;6.40;99.90;;;;;;5090754;28;20207;-70
2023/04/06 07:02:20;;;;;;;4.60;3.30;;;6.40;99.90;;;;;;5077478;28;20180;-64
2023/04/06 07:04:49;;;;;;;4.57;3.47;;;6.50;99.90;;;;;;5076155;28;20187;-70
2023/04/06 07:07:17;;;;;;;4.30;3.50;;;6.60;99.90;;;;;;5080855;28;20276;-69
2023/04/06 07:09:45;;;;;;;5.83;3.60;;;6.70;99.90;;;;;;5096044;28;20191;-69
2023/04/06 07:12:10;;;;;;;5.23;4.00;;;6.70;99.90;;;;;;5098077;28;20224;-69
2023/04/06 07:14:36;;;;;;;4.10;3.33;;;6.80;99.90;;;;;;5085780;28;20222;-69
2023/04/06 07:17:04;;;;;;;3.70;3.30;;;6.90;99.90;;;;;;5097231;28;20164;-66
2023/04/06 07:19:35;;;;;;;6.83;4.00;;;7.00;99.90;;;;;;5090951;28;20203;-69
2023/04/06 07:22:03;;;;;;;6.10;3.90;;;7.00;99.90;;;;;;5087038;28;20251;-69
2023/04/06 07:24:29;;;;;;;5.03;3.83;;;7.10;99.90;;;;;;5080065;28;20237;-68
2023/04/06 07:26:56;;;;;;;5.10;3.77;;;7.20;99.90;;;;;;5078816;28;20196;-68
2023/04/06 07:29:22;;;;;;;6.33;4.63;;;7.30;99.90;;;;;;5072825;28;20386;-69
2023/04/06 07:31:49;;;;;;;5.23;4.03;;;7.30;99.90;;;;;;5104689;28;20234;-67
2023/04/06 07:34:15;;;;;;;5.17;3.90;;;7.40;99.90;;;;;;5064764;28;20531;-68
2023/04/06 07:36:40;;;;;;;5.23;3.97;;;7.50;99.90;;;;;;5100230;28;20195;-71
2023/04/06 07:39:07;;;;;;;7.47;4.73;;;7.60;99.90;;;;;;5089612;28;20183;-69
2023/04/06 07:41:33;;;;;;;7.20;4.33;;;7.70;99.90;;;;;;5076686;28;20234;-69
2023/04/06 07:43:58;;;;;;;5.37;4.20;;;7.70;99.90;;;;;;5095797;28;20185;-70
2023/04/06 07:46:24;;;;;;;5.53;4.27;;;7.90;99.90;;;;;;5084425;28;20195;-69
2023/04/06 07:48:52;;;;;;;5.93;4.43;;;7.90;99.90;;;;;;5080965;28;20192;-69
2023/04/06 07:51:18;;;;;;;5.40;4.30;;;8.10;99.90;;;;;;5086849;28;20231;-68
2023/04/06 07:53:46;;;;;;;4.67;3.77;;;8.20;99.90;;;;;;5088258;28;20199;-68
2023/04/06 07:56:12;;;;;;;6.13;4.50;;;8.30;99.90;;;;;;5110476;28;20218;-70
2023/04/06 07:58:40;;;;;;;5.57;4.10;;;8.50;99.90;;;;;;5068523;28;20628;-70
2023/04/06 08:01:08;;;;;;;4.90;3.87;;;8.60;99.90;;;;;;5067689;28;20172;-66
2023/04/06 08:03:35;;;;;;;6.40;4.13;;;8.80;99.90;;;;;;5079568;28;20168;-67
2023/04/06 08:06:03;;;;;;;6.20;4.80;;;8.90;99.90;;;;;;5072262;28;20218;-70
2023/04/06 08:08:31;;;;;;;5.60;4.13;;;9.10;99.90;;;;;;5079621;28;20354;-69
2023/04/06 08:10:59;;;;;;;9.57;4.67;;;9.20;99.90;;;;;;5096220;28;20197;-69
2023/04/06 08:13:25;;;;;;;6.95;4.60;;;9.30;99.90;;;;;;5069211;28;20233;-71
2023/04/06 08:15:51;;;;;;;5.80;4.17;;;9.40;99.90;;;;;;5072268;28;20168;-72
2023/04/06 08:18:18;;;;;;;6.47;4.67;;;9.60;99.90;;;;;;5078079;28;20230;-69
2023/04/06 08:20:46;;;;;;;6.60;4.37;;;9.60;99.90;;;;;;5079354;28;20175;-69
2023/04/06 08:23:14;;;;;;;5.40;4.47;;;9.70;99.90;;;;;;5074581;28;20175;-68
2023/04/06 08:25:42;;;;;;;6.77;4.60;;;9.80;99.90;;;;;;5077074;28;20199;-69
2023/04/06 08:28:11;;;;;;;6.95;4.80;;;9.90;99.90;;;;;;5079246;28;20224;-69
2023/04/06 08:30:42;;;;;;;7.32;4.72;;;10.00;99.60;;;;;;5078841;28;20164;-69
2023/04/06 08:33:11;;;;;;;5.40;4.20;;;10.10;99.50;;;;;;5074003;28;20196;-69
2023/04/06 08:35:37;;;;;;;7.15;4.05;;;10.20;99.90;;;;;;5076881;28;20172;-69
2023/04/06 08:38:06;;;;;;;5.88;3.75;;;10.30;99.90;;;;;;5078775;28;20199;-69
2023/04/06 08:40:39;;;;;;;6.15;4.50;;;10.50;99.90;;;;;;5078998;28;20179;-69
2023/04/06 08:43:08;;;;;;;8.57;4.93;;;10.60;99.60;;;;;;5077584;28;20219;-69
2023/04/06 08:45:34;;;;;;;9.00;4.95;;;10.70;99.30;;;;;;5111707;28;20180;-69
2023/04/06 08:48:01;;;;;;;9.70;5.57;;;10.90;99.40;;;;;;5078685;28;20188;-70
2023/04/06 08:50:31;;;;;;;7.30;4.57;;;11.00;99.60;;;;;;5078663;28;20192;-69
2023/04/06 08:52:59;;;;;;;6.03;4.80;;;11.10;99.40;;;;;;5098886;28;20182;-70
2023/04/06 08:55:25;;;;;;;8.25;5.60;;;11.30;99.40;;;;;;5088860;28;20191;-68
2023/04/06 08:57:57;;;;;;;7.53;5.00;;;11.30;98.70;;;;;;5112756;28;20200;-68
2023/04/06 09:00:25;;;;;;;8.35;5.75;;;11.50;98.20;;;;;;5111943;28;20195;-68
2023/04/06 09:02:57;;;;;;;7.60;5.30;;;11.60;98.20;;;;;;5084018;28;20344;-68
2023/04/06 09:05:25;;;;;;;8.23;6.10;;;11.70;98.10;;;;;;5079628;28;20186;-68
2023/04/06 09:07:51;;;;;;;9.95;6.85;;;11.80;97.60;;;;;;5098937;28;20191;-68
2023/04/06 09:10:20;;;;;;;10.00;6.28;;;11.90;96.80;;;;;;5085252;28;20195;-68
2023/04/06 09:12:48;;;;;;;9.35;5.65;;;12.10;96.90;;;;;;5078206;28;20190;-60
2023/04/06 09:15:23;;;;;;;9.25;5.90;;;12.20;97.10;;;;;;5071296;28;20198;-69
2023/04/06 09:17:49;;;;;;;9.07;5.43;;;12.40;96.50;;;;;;5099883;28;20183;-71
2023/04/06 09:20:16;;;;;;;8.05;5.40;;;12.60;97.90;;;;;;5066969;28;20190;-69
2023/04/06 09:22:42;;;;;;;8.52;5.18;;;12.70;97.50;;;;;;5077100;28;20176;-69
2023/04/06 09:25:10;;;;;;;8.15;5.32;;;12.90;97.80;;;;;;5077492;28;20210;-68
2023/04/06 09:27:37;;;;;;;7.05;4.65;;;13.00;97.40;;;;;;5076295;28;20184;-69
2023/04/06 09:30:08;;;;;;;8.80;5.25;;;13.20;97.70;;;;;;5077750;28;20188;-67
2023/04/06 09:32:54;;;;;;;9.65;6.07;;;13.40;96.70;;;;;;5077802;28;20191;-69
2023/04/06 09:35:20;;;;;;;9.65;5.88;;;13.50;95.90;;;;;;5064074;28;20176;-69
2023/04/06 09:37:50;;;;;;;8.52;5.25;;;13.60;97.00;;;;;;5068343;28;20237;-60
2023/04/06 09:40:19;;;;;;;6.72;4.63;;;13.70;97.00;;;;;;5104398;28;20182;-69
2023/04/06 09:42:46;;;;;;;8.30;4.60;;;13.80;97.10;;;;;;5091369;28;20215;-68
2023/04/06 09:45:15;;;;;;;11.15;6.25;;;14.00;97.00;;;;;;5110501;28;20178;-69
2023/04/06 09:47:45;;;;;;;9.35;5.78;;;14.10;96.20;;;;;;5078656;28;20280;-70
2023/04/06 09:50:13;;;;;;;9.38;5.70;;;14.20;95.60;;;;;;5094594;28;20160;-66
2023/04/06 09:52:46;;;;;;;9.40;5.78;;;14.40;95.90;;;;;;5077871;28;20172;-69
2023/04/06 09:55:17;;;;;;;9.63;5.80;;;14.40;95.80;;;;;;5111143;28;20283;-69
2023/04/06 09:57:43;;;;;;;8.77;5.72;;;14.50;95.10;;;;;;5074547;28;20196;-70
2023/04/06 10:00:17;;;;;;;9.52;6.18;;;14.60;94.60;;;;;;5059408;28;20193;-69
2023/04/06 10:02:49;;;;;;;10.32;7.00;;;14.60;93.70;;;;;;5065301;28;20196;-68
2023/04/06 10:05:35;;;;;;;9.55;6.32;;;14.70;92.80;;;;;;5082467;28;20176;-69
2023/04/06 10:08:11;;;;;;;10.63;6.72;;;14.80;92.50;;;;;;5084141;28;20202;-67
2023/04/06 10:10:39;;;;;;;7.95;5.63;;;14.90;91.90;;;;;;5078139;28;20180;-68
2023/04/06 10:13:05;;;;;;;9.90;6.50;;;15.00;92.50;;;;;;5076182;28;20168;-70
2023/04/06 10:15:32;;;;;;;10.63;7.35;;;15.10;91.70;;;;;;5076131;28;20289;-69
2023/04/06 10:18:04;;;;;;;10.70;6.72;;;15.20;90.90;;;;;;5097125;28;20175;-69
2023/04/06 10:20:34;;;;;;;10.77;6.75;;;15.40;90.90;;;;;;5077235;28;20259;-69
2023/04/06 10:23:19;;;;;;;11.80;7.55;;;15.50;90.10;;;;;;5077023;28;20259;-69
2023/04/06 10:26:16;;;;;;;11.15;6.80;;;15.70;87.30;;;;;;5073541;28;20204;-69
2023/04/06 10:28:45;;;;;;;10.77;6.85;;;15.80;88.80;;;;;;5060482;28;20192;-68
2023/04/06 10:31:11;;;;;;;12.05;6.85;;;15.70;88.40;;;;;;5076525;28;20179;-67
2023/04/06 10:33:37;;;;;;;11.75;6.32;;;15.70;88.80;;;;;;5075673;28;20195;-68
2023/04/06 10:36:25;;;;;;;11.30;7.10;;;15.80;88.80;;;;;;5076272;28;20179;-66
2023/04/06 10:38:57;;;;;;;10.90;6.93;;;15.80;86.70;;;;;;5078879;28;20259;-69
2023/04/06 10:41:22;;;;;;;10.02;6.78;;;15.80;87.50;;;;;;5077364;28;20218;-67
2023/04/06 10:43:56;;;;;;;11.35;7.15;;;15.80;87.50;;;;;;5076032;28;20187;-69
2023/04/06 10:46:33;;;;;;;10.40;6.53;;;15.80;84.60;;;;;;5070306;28;20172;-68
2023/04/06 10:49:11;;;;;;;11.73;7.35;;;15.70;83.70;;;;;;5080574;28;20203;-69
2023/04/06 10:51:39;;;;;;;11.93;7.70;;;15.60;84.50;;;;;;5081302;28;20252;-65
2023/04/06 10:54:06;;;;;;;13.15;7.85;;;15.50;82.50;;;;;;5077672;28;20204;-65
2023/04/06 10:56:38;;;;;;;10.38;7.00;;;15.40;82.80;;;;;;5080356;28;20213;-65
2023/04/06 10:59:07;;;;;;;11.68;7.22;;;15.40;82.60;;;;;;5077267;28;20180;-66
2023/04/06 11:01:33;;;;;;;11.07;7.32;;;15.30;83.10;;;;;;5060574;28;20200;-66
2023/04/06 11:04:04;;;;;;;12.32;7.60;;;15.30;82.70;;;;;;5079679;28;20262;-66
2023/04/06 11:06:32;;;;;;;12.15;7.15;;;15.30;82.70;;;;;;5080195;28;20210;-66
2023/04/06 11:09:03;;;;;;;12.90;7.72;;;15.40;81.90;;;;;;5080178;28;20203;-65
2023/04/06 11:11:29;;;;;;;9.68;6.93;;;15.40;81.80;;;;;;5080307;28;20199;-65
2023/04/06 11:13:59;;;;;;;9.43;6.25;;;15.40;82.60;;;;;;5073290;28;20219;-65
2023/04/06 11:16:30;;;;;;;9.27;6.07;;;15.40;82.20;;;;;;5071972;28;20168;-65
2023/04/06 11:19:01;;;;;;;11.25;7.32;;;15.40;81.90;;;;;;5100202;28;20256;-66
2023/04/06 11:21:39;;;;;;;10.38;6.82;;;15.50;81.40;;;;;;5087993;28;20266;-65
2023/04/06 11:24:07;;;;;;;11.70;7.80;;;15.50;80.90;;;;;;5076360;28;20267;-65
2023/04/06 11:26:44;;;;;;;12.32;7.82;;;15.50;80.90;;;;;;5113123;28;20192;-65
2023/04/06 11:29:11;;;;;;;11.60;7.57;;;15.40;80.20;;;;;;5079578;28;20195;-65
2023/04/06 11:31:42;;;;;;;13.25;7.57;;;15.40;80.50;;;;;;5079591;28;20279;-65
2023/04/06 11:34:15;;;;;;;13.02;8.23;;;15.40;79.70;;;;;;5075815;28;20192;-65
2023/04/06 11:36:41;;;;;;;12.13;7.95;;;15.40;79.10;;;;;;5077794;28;20183;-67
2023/04/06 11:39:07;;;;;;;10.88;7.07;;;15.40;79.20;;;;;;5088030;28;20191;-66
2023/04/06 11:41:38;;;;;;;11.23;7.43;;;15.40;79.80;;;;;;5083497;28;20199;-65
2023/04/06 11:44:07;;;;;;;11.77;7.53;;;15.40;78.50;;;;;;5079275;28;20179;-66
2023/04/06 11:46:35;;;;;;;10.77;7.53;;;15.50;79.50;;;;;;5112491;28;20183;-66
2023/04/06 11:49:02;;;;;;;10.95;7.40;;;15.50;79.40;;;;;;5077367;28;20180;-68
2023/04/06 11:51:35;;;;;;;11.75;7.60;;;15.60;78.80;;;;;;5076895;28;20193;-66
2023/04/06 11:54:01;;;;;;;10.48;7.35;;;15.60;78.10;;;;;;5069075;28;20178;-66
2023/04/06 11:56:31;;;;;;;12.05;7.38;;;15.60;77.90;;;;;;5079385;28;20263;-67
2023/04/06 11:58:59;;;;;;;10.60;7.20;;;15.60;77.00;;;;;;5081484;28;20176;-67
2023/04/06 12:01:25;;;;;;;10.68;6.65;;;15.60;77.90;;;;;;5085032;28;20180;-67
2023/04/06 12:03:52;;;;;;;9.07;6.60;;;15.60;78.00;;;;;;5076544;28;20248;-66
2023/04/06 12:06:20;;;;;;;10.98;7.60;;;15.60;78.40;;;;;;5080214;28;20181;-67
2023/04/06 12:08:46;;;;;;;10.70;7.22;;;15.60;77.90;;;;;;5088803;28;20203;-68
2023/04/06 12:11:12;;;;;;;10.07;6.93;;;15.60;77.30;;;;;;5079057;28;20167;-67
2023/04/06 12:13:38;;;;;;;10.50;7.10;;;15.70;75.70;;;;;;5078458;28;20255;-67
2023/04/06 12:16:04;;;;;;;9.18;6.60;;;15.70;76.10;;;;;;5070735;28;20267;-67
2023/04/06 12:18:30;;;;;;;10.68;7.20;;;15.70;77.20;;;;;;5078334;28;20211;-67
2023/04/06 12:20:58;;;;;;;9.90;5.95;;;15.70;77.10;;;;;;5070929;28;20184;-67
2023/04/06 12:23:28;;;;;;;9.80;6.93;;;15.80;77.70;;;;;;5079297;28;20196;-67
2023/04/06 12:25:54;;;;;;;9.57;6.50;;;15.90;76.60;;;;;;5079585;28;20191;-66
2023/04/06 12:28:26;;;;;;;11.18;6.65;;;15.90;76.10;;;;;;5093704;28;20522;-66
2023/04/06 12:30:52;;;;;;;10.23;6.53;;;16.00;75.40;;;;;;5059521;28;20196;-67
2023/04/06 12:33:17;;;;;;;7.68;5.60;;;16.00;76.10;;;;;;5078296;28;20175;-67
2023/04/06 12:35:43;;;;;;;10.95;6.18;;;16.10;76.60;;;;;;5078183;28;20201;-66
2023/04/06 12:38:09;;;;;;;10.20;6.32;;;16.10;73.50;;;;;;5078675;28;20176;-66
2023/04/06 12:40:39;;;;;;;10.15;6.43;;;16.10;73.80;;;;;;5078053;28;20179;-66
2023/04/06 12:43:08;;;;;;;8.27;6.05;;;16.10;73.00;;;;;;5078327;28;20423;-66
2023/04/06 12:45:34;;;;;;;9.50;6.18;;;16.10;74.00;;;;;;5076284;28;20186;-68
2023/04/06 12:48:02;;;;;;;10.27;6.05;;;16.10;73.80;;;;;;5067829;28;20200;-66
2023/04/06 12:50:30;;;;;;;8.20;5.80;;;16.10;73.50;;;;;;5063436;28;20282;-66
2023/04/06 12:52:58;;;;;;;7.70;5.47;;;16.10;72.50;;;;;;5058648;28;20208;-66